Tenterden, United Kingdom
Current Conditions -  °F | °C
As of 4:20 PM on Tuesday 21 Oct 2014 (Local Time) from EGMD Reporting Station
Rain Showers Rain Showers  
Wind Chill: 12°   Ceiling: Unl
Heat Index: 12°   Visibility: 6mi
Dew Point:   Wind: 25mph
Humidity: 67%   Direction: 280°W
Pressure: 29.8"   Gusts: NA
Location:  51.07°N, 0.69°E
Report Text: EGMD 211520Z 28022KT 9999 VCSH SCT042CB 12/06 Q1009
Loading
Personal Weather Stations






























Interactive Weather Map
Tropical Storm Tracking
New forecast layout! Learn more

10-Day Weather Forecast

Advertisements
Track Severe Weather on mobile